Lake Orion, MI (48362)

2:16 PM EDT on May 24, 2015 (GMT -0400)
Hills of Oxford Condos (North M24 Oxford/Lake Orion) | | Change Station
CLOSE
Current Station
Personal Weather Station
Location: Oxford, MI
Elevation: 1020 ft
Nearby Weather Stations

Elev 1020 ft 42.80 °N, 83.25 °W | Updated 2 seconds ago

Mostly Cloudy
Mostly Cloudy
80.4 °F
Feels Like 80 °F
N
0.0
Wind Variable Wind from SSE
Gusts 0.0 mph

Today
High -- | Low -- °F
--% Chance of Precip.
Yesterday
High -- | Low -- °F
Precip. -- in
6:02 AM 8:57 PM
Waxing Crescent, 41% visible
Pressure 30.22 in
Visibility 10.0 miles
Clouds Scattered Clouds 4300 ft
Mostly Cloudy 9500 ft
Overcast 12000 ft
Heat Index 80 °F
Dew Point 50 °F
Humidity 34%
Rainfall 0.00 in
Snow Depth Not available.
UV 3 out of 12
Pollen 9.40 out of 12
Air Quality Not available.
Flu Activity Sporadic
METAR KPTK 241753Z 21006KT 10SM SCT043 BKN095 OVC120 24/09 A3022 RMK AO2 SLP231 T02390089 10244 20167 58006

More Conditions Fewer Conditions

Pressure 30.22 in
Visibility 10.0 miles
Clouds Scattered Clouds 4300 ft
Mostly Cloudy 9500 ft
Overcast 12000 ft
Heat Index 80 °F
Dew Point 50 °F
Humidity 34%
Rainfall 0.00 in
Snow Depth Not available.
UV 3 out of 12
Pollen 9.40 out of 12
Air Quality Not available.
Flu Activity Sporadic
METAR KPTK 241753Z 21006KT 10SM SCT043 BKN095 OVC120 24/09 A3022 RMK AO2 SLP231 T02390089 10244 20167 58006

More Conditions Fewer Conditions

10-Day Weather Forecast

Almanac

Astronomy

May. 24, 2015 Rise Set
Actual Time
Civil Twilight
Nautical Twilight
Astronomical Twilight
Moon
Length of Visible Light
Length of Day
Tomorrow will be .
, % of the Moon is Illuminated

Today's Extremes

State Highs State Lows

Community

WunderPhotos

Upload Photos

1,823,817 photos uploaded!

WunderBlogs® & News

Nearby

Air Quality

  Air Quality AQ Index Pollutant
Not available.

Snow Depth

Station Depth Elevation

Earthquake Activity

City Distance Mag. Time & Date
Minimum magnitude displayed is 2.5.

Coastal Water Temperatures

Place Temperature

Stations

Nearby Weather Stations

Station Location Temp. Windchill Dew Point Humidity Wind Precip. Elev Updated Type